sensor_id;sensor_type;location;lat;lon;timestamp;pressure;altitude;pressure_sealevel;temperature;humidity
31082;BME280;17737;52.586;13.284;2023-04-24T00:00:04;99834.28;;;12.01;75.72
31082;BME280;17737;52.586;13.284;2023-04-24T00:02:33;99836.22;;;12.07;75.79
31082;BME280;17737;52.586;13.284;2023-04-24T00:05:01;99836.75;;;11.96;76.40
31082;BME280;17737;52.586;13.284;2023-04-24T00:07:31;99826.38;;;11.93;76.62
31082;BME280;17737;52.586;13.284;2023-04-24T00:09:59;99832.16;;;11.90;76.73
31082;BME280;17737;52.586;13.284;2023-04-24T00:12:27;99821.44;;;11.69;77.33
31082;BME280;17737;52.586;13.284;2023-04-24T00:14:55;99814.38;;;11.68;77.58
31082;BME280;17737;52.586;13.284;2023-04-24T00:17:23;99811.72;;;11.74;77.58
31082;BME280;17737;52.586;13.284;2023-04-24T00:19:51;99808.03;;;11.88;77.41
31082;BME280;17737;52.586;13.284;2023-04-24T00:22:25;99811.41;;;11.97;76.97
31082;BME280;17737;52.586;13.284;2023-04-24T00:24:54;99803.06;;;11.85;77.25
31082;BME280;17737;52.586;13.284;2023-04-24T00:27:22;99801.16;;;11.79;77.68
31082;BME280;17737;52.586;13.284;2023-04-24T00:29:50;99793.13;;;11.92;77.47
31082;BME280;17737;52.586;13.284;2023-04-24T00:32:18;99791.06;;;11.94;77.28
31082;BME280;17737;52.586;13.284;2023-04-24T00:34:46;99792.69;;;11.89;77.42
31082;BME280;17737;52.586;13.284;2023-04-24T00:37:14;99785.19;;;11.78;78.18
31082;BME280;17737;52.586;13.284;2023-04-24T00:39:42;99791.03;;;11.88;78.15
31082;BME280;17737;52.586;13.284;2023-04-24T00:42:12;99781.91;;;11.89;78.23
31082;BME280;17737;52.586;13.284;2023-04-24T00:44:40;99777.88;;;11.78;78.40
31082;BME280;17737;52.586;13.284;2023-04-24T00:47:09;99778.94;;;11.77;78.50
31082;BME280;17737;52.586;13.284;2023-04-24T00:49:38;99772.53;;;11.85;78.45
31082;BME280;17737;52.586;13.284;2023-04-24T00:52:06;99762.34;;;11.80;78.41
31082;BME280;17737;52.586;13.284;2023-04-24T00:54:35;99759.66;;;11.87;78.44
31082;BME280;17737;52.586;13.284;2023-04-24T00:57:03;99750.34;;;11.89;78.60
31082;BME280;17737;52.586;13.284;2023-04-24T00:59:33;99752.94;;;11.70;79.69
31082;BME280;17737;52.586;13.284;2023-04-24T01:02:02;99745.78;;;11.56;79.97
31082;BME280;17737;52.586;13.284;2023-04-24T01:04:32;99744.69;;;11.78;80.09
31082;BME280;17737;52.586;13.284;2023-04-24T01:07:00;99737.06;;;11.88;79.56
31082;BME280;17737;52.586;13.284;2023-04-24T01:09:29;99752.16;;;11.76;79.64
31082;BME280;17737;52.586;13.284;2023-04-24T01:11:57;99758.22;;;11.84;80.29
31082;BME280;17737;52.586;13.284;2023-04-24T01:14:27;99764.50;;;11.98;79.90
31082;BME280;17737;52.586;13.284;2023-04-24T01:16:57;99768.72;;;12.14;79.83
31082;BME280;17737;52.586;13.284;2023-04-24T01:19:25;99765.22;;;12.26;79.34
31082;BME280;17737;52.586;13.284;2023-04-24T01:21:53;99767.13;;;12.26;79.23
31082;BME280;17737;52.586;13.284;2023-04-24T01:24:28;99772.94;;;12.29;80.19
31082;BME280;17737;52.586;13.284;2023-04-24T01:26:56;99767.06;;;12.19;84.21
31082;BME280;17737;52.586;13.284;2023-04-24T01:29:24;99765.41;;;12.12;85.33
31082;BME280;17737;52.586;13.284;2023-04-24T01:31:53;99759.34;;;12.03;86.59
31082;BME280;17737;52.586;13.284;2023-04-24T01:34:25;99757.69;;;12.09;86.50
31082;BME280;17737;52.586;13.284;2023-04-24T01:36:53;99757.84;;;12.00;86.58
31082;BME280;17737;52.586;13.284;2023-04-24T01:39:23;99758.06;;;11.99;86.50
31082;BME280;17737;52.586;13.284;2023-04-24T01:41:53;99751.78;;;11.92;86.61
31082;BME280;17737;52.586;13.284;2023-04-24T01:44:22;99754.94;;;11.95;88.06
31082;BME280;17737;52.586;13.284;2023-04-24T01:46:50;99749.97;;;11.99;87.73
31082;BME280;17737;52.586;13.284;2023-04-24T01:49:20;99753.31;;;12.01;86.82
31082;BME280;17737;52.586;13.284;2023-04-24T01:51:48;99754.13;;;11.95;86.83
31082;BME280;17737;52.586;13.284;2023-04-24T01:54:16;99750.38;;;11.96;86.31
31082;BME280;17737;52.586;13.284;2023-04-24T01:56:45;99746.16;;;11.87;86.70
31082;BME280;17737;52.586;13.284;2023-04-24T01:59:16;99736.19;;;11.81;87.44
31082;BME280;17737;52.586;13.284;2023-04-24T02:01:45;99732.03;;;11.85;88.27
31082;BME280;17737;52.586;13.284;2023-04-24T02:04:13;99720.44;;;11.91;87.72
31082;BME280;17737;52.586;13.284;2023-04-24T02:06:41;99721.88;;;11.87;87.48
31082;BME280;17737;52.586;13.284;2023-04-24T02:09:09;99733.28;;;11.82;87.52
31082;BME280;17737;52.586;13.284;2023-04-24T02:11:38;99730.34;;;11.77;87.26
31082;BME280;17737;52.586;13.284;2023-04-24T02:14:06;99726.38;;;11.73;87.29
31082;BME280;17737;52.586;13.284;2023-04-24T02:16:35;99727.66;;;11.77;87.47
31082;BME280;17737;52.586;13.284;2023-04-24T02:19:03;99728.03;;;11.68;86.93
31082;BME280;17737;52.586;13.284;2023-04-24T02:21:31;99729.41;;;11.57;87.86
31082;BME280;17737;52.586;13.284;2023-04-24T02:23:59;99716.13;;;11.56;88.60
31082;BME280;17737;52.586;13.284;2023-04-24T02:26:27;99714.88;;;11.58;88.14
31082;BME280;17737;52.586;13.284;2023-04-24T02:28:57;99708.59;;;11.51;88.54
31082;BME280;17737;52.586;13.284;2023-04-24T02:31:25;99709.66;;;11.50;88.81
31082;BME280;17737;52.586;13.284;2023-04-24T02:33:54;99713.00;;;11.59;87.93
31082;BME280;17737;52.586;13.284;2023-04-24T02:36:22;99714.22;;;11.56;88.32
31082;BME280;17737;52.586;13.284;2023-04-24T02:38:50;99705.31;;;11.56;88.71
31082;BME280;17737;52.586;13.284;2023-04-24T02:41:18;99707.88;;;11.64;88.26
31082;BME280;17737;52.586;13.284;2023-04-24T02:43:47;99697.47;;;11.61;87.99
31082;BME280;17737;52.586;13.284;2023-04-24T02:46:15;99694.22;;;11.78;87.94
31082;BME280;17737;52.586;13.284;2023-04-24T02:48:42;99691.16;;;11.88;86.74
31082;BME280;17737;52.586;13.284;2023-04-24T02:51:12;99704.38;;;11.76;87.40
31082;BME280;17737;52.586;13.284;2023-04-24T02:53:40;99704.78;;;11.67;87.15
31082;BME280;17737;52.586;13.284;2023-04-24T02:56:08;99710.00;;;11.75;87.21
31082;BME280;17737;52.586;13.284;2023-04-24T02:58:38;99700.66;;;11.71;87.50
31082;BME280;17737;52.586;13.284;2023-04-24T03:01:06;99701.44;;;11.65;87.90
31082;BME280;17737;52.586;13.284;2023-04-24T03:03:36;99700.75;;;11.63;87.40
31082;BME280;17737;52.586;13.284;2023-04-24T03:06:05;99708.72;;;11.64;87.83
31082;BME280;17737;52.586;13.284;2023-04-24T03:08:36;99707.47;;;11.67;87.45
31082;BME280;17737;52.586;13.284;2023-04-24T03:11:04;99712.47;;;11.70;87.46
31082;BME280;17737;52.586;13.284;2023-04-24T03:13:31;99714.56;;;11.74;86.99
31082;BME280;17737;52.586;13.284;2023-04-24T03:15:59;99720.78;;;11.75;86.80
31082;BME280;17737;52.586;13.284;2023-04-24T03:18:28;99720.78;;;11.75;86.73
31082;BME280;17737;52.586;13.284;2023-04-24T03:20:56;99718.31;;;11.80;86.40
31082;BME280;17737;52.586;13.284;2023-04-24T03:23:24;99715.78;;;11.72;87.18
31082;BME280;17737;52.586;13.284;2023-04-24T03:25:53;99715.16;;;11.70;87.12
31082;BME280;17737;52.586;13.284;2023-04-24T03:28:22;99718.72;;;11.77;87.16
31082;BME280;17737;52.586;13.284;2023-04-24T03:30:51;99712.91;;;11.80;86.67
31082;BME280;17737;52.586;13.284;2023-04-24T03:33:19;99720.00;;;11.81;86.54
31082;BME280;17737;52.586;13.284;2023-04-24T03:35:47;99721.25;;;11.85;86.34
31082;BME280;17737;52.586;13.284;2023-04-24T03:38:15;99712.53;;;11.83;86.15
31082;BME280;17737;52.586;13.284;2023-04-24T03:40:43;99716.47;;;11.87;85.98
31082;BME280;17737;52.586;13.284;2023-04-24T03:43:13;99711.50;;;11.90;85.89
31082;BME280;17737;52.586;13.284;2023-04-24T03:45:41;99705.47;;;11.88;86.20
31082;BME280;17737;52.586;13.284;2023-04-24T03:48:09;99718.75;;;11.83;86.65
31082;BME280;17737;52.586;13.284;2023-04-24T03:50:37;99718.28;;;11.73;86.86
31082;BME280;17737;52.586;13.284;2023-04-24T03:53:05;99713.53;;;11.75;87.02
31082;BME280;17737;52.586;13.284;2023-04-24T03:55:33;99722.06;;;11.79;87.06
31082;BME280;17737;52.586;13.284;2023-04-24T03:58:01;99718.28;;;11.73;86.95
31082;BME280;17737;52.586;13.284;2023-04-24T04:00:30;99715.00;;;11.78;86.90
31082;BME280;17737;52.586;13.284;2023-04-24T04:03:00;99722.47;;;11.76;86.86
31082;BME280;17737;52.586;13.284;2023-04-24T04:05:28;99721.19;;;11.72;87.18
31082;BME280;17737;52.586;13.284;2023-04-24T04:07:57;99712.88;;;11.73;87.22
31082;BME280;17737;52.586;13.284;2023-04-24T04:10:24;99716.88;;;11.84;86.72
31082;BME280;17737;52.586;13.284;2023-04-24T04:12:52;99713.13;;;11.85;86.62
31082;BME280;17737;52.586;13.284;2023-04-24T04:15:20;99702.34;;;11.85;87.02
31082;BME280;17737;52.586;13.284;2023-04-24T04:17:50;99706.72;;;11.79;86.32
31082;BME280;17737;52.586;13.284;2023-04-24T04:20:18;99703.16;;;11.79;86.32
31082;BME280;17737;52.586;13.284;2023-04-24T04:22:46;99704.22;;;11.78;85.73
31082;BME280;17737;52.586;13.284;2023-04-24T04:25:13;99702.13;;;11.80;86.33
31082;BME280;17737;52.586;13.284;2023-04-24T04:27:41;99702.97;;;11.80;86.04
31082;BME280;17737;52.586;13.284;2023-04-24T04:30:10;99704.38;;;11.76;85.84
31082;BME280;17737;52.586;13.284;2023-04-24T04:32:38;99710.00;;;11.75;85.93
31082;BME280;17737;52.586;13.284;2023-04-24T04:35:08;99711.66;;;11.69;85.92
31082;BME280;17737;52.586;13.284;2023-04-24T04:37:36;99708.94;;;11.69;85.96
31082;BME280;17737;52.586;13.284;2023-04-24T04:40:05;99714.94;;;11.71;85.60
31082;BME280;17737;52.586;13.284;2023-04-24T04:42:38;99711.00;;;11.67;85.85
31082;BME280;17737;52.586;13.284;2023-04-24T04:45:07;99708.31;;;11.67;85.68
31082;BME280;17737;52.586;13.284;2023-04-24T04:47:37;99719.53;;;11.71;85.44
31082;BME280;17737;52.586;13.284;2023-04-24T04:50:08;99716.66;;;11.79;84.96
31082;BME280;17737;52.586;13.284;2023-04-24T04:52:36;99722.47;;;11.76;85.05
31082;BME280;17737;52.586;13.284;2023-04-24T04:55:05;99720.00;;;11.81;84.76
31082;BME280;17737;52.586;13.284;2023-04-24T04:57:34;99734.34;;;11.88;84.43
31082;BME280;17737;52.586;13.284;2023-04-24T05:00:02;99726.50;;;11.93;83.92
31082;BME280;17737;52.586;13.284;2023-04-24T05:02:31;99723.81;;;11.99;84.00
31082;BME280;17737;52.586;13.284;2023-04-24T05:04:59;99736.31;;;12.07;84.40
31082;BME280;17737;52.586;13.284;2023-04-24T05:07:29;99732.16;;;12.11;84.13
31082;BME280;17737;52.586;13.284;2023-04-24T05:09:57;99743.16;;;12.16;83.27
31082;BME280;17737;52.586;13.284;2023-04-24T05:12:25;99743.41;;;12.21;82.57
31082;BME280;17737;52.586;13.284;2023-04-24T05:14:53;99738.88;;;12.35;82.55
31082;BME280;17737;52.586;13.284;2023-04-24T05:17:21;99740.13;;;12.45;81.60
31082;BME280;17737;52.586;13.284;2023-04-24T05:19:49;99737.03;;;12.48;81.12
31082;BME280;17737;52.586;13.284;2023-04-24T05:22:17;99727.69;;;12.51;nan
31082;BME280;17737;52.586;13.284;2023-04-24T05:24:48;99736.00;;;12.49;80.51
31082;BME280;17737;52.586;13.284;2023-04-24T05:27:16;99745.78;;;12.63;79.94
31082;BME280;17737;52.586;13.284;2023-04-24T05:29:44;99748.09;;;12.66;79.27
31082;BME280;17737;52.586;13.284;2023-04-24T05:32:12;99751.44;;;12.68;79.34
31082;BME280;17737;52.586;13.284;2023-04-24T05:34:40;99755.16;;;12.67;78.84
31082;BME280;17737;52.586;13.284;2023-04-24T05:37:08;99752.88;;;12.77;79.20
31082;BME280;17737;52.586;13.284;2023-04-24T05:39:36;99749.94;;;12.66;78.74
31082;BME280;17737;52.586;13.284;2023-04-24T05:42:06;99751.81;;;12.65;78.26
31082;BME280;17737;52.586;13.284;2023-04-24T05:44:34;99747.88;;;12.68;78.68
31082;BME280;17737;52.586;13.284;2023-04-24T05:47:02;99750.16;;;12.71;78.31
31082;BME280;17737;52.586;13.284;2023-04-24T05:49:30;99753.94;;;12.76;78.08
31082;BME280;17737;52.586;13.284;2023-04-24T05:51:58;99741.84;;;12.79;77.95
31082;BME280;17737;52.586;13.284;2023-04-24T05:54:26;99749.78;;;12.93;77.48
31082;BME280;17737;52.586;13.284;2023-04-24T05:56:55;99760.16;;;12.77;78.16
31082;BME280;17737;52.586;13.284;2023-04-24T05:59:24;99764.09;;;12.68;78.31
31082;BME280;17737;52.586;13.284;2023-04-24T06:01:52;99768.66;;;12.74;78.07
31082;BME280;17737;52.586;13.284;2023-04-24T06:04:20;99759.13;;;12.91;77.88
31082;BME280;17737;52.586;13.284;2023-04-24T06:06:49;99758.53;;;12.95;77.11
31082;BME280;17737;52.586;13.284;2023-04-24T06:09:22;99758.09;;;12.98;77.26
31082;BME280;17737;52.586;13.284;2023-04-24T06:11:50;99768.50;;;12.95;77.23
31082;BME280;17737;52.586;13.284;2023-04-24T06:14:20;99759.38;;;13.09;76.88
31082;BME280;17737;52.586;13.284;2023-04-24T06:16:50;99769.78;;;13.05;76.40
31082;BME280;17737;52.586;13.284;2023-04-24T06:19:18;99764.38;;;13.05;75.78
31082;BME280;17737;52.586;13.284;2023-04-24T06:21:46;99767.28;;;13.23;75.38
31082;BME280;17737;52.586;13.284;2023-04-24T06:24:14;99763.94;;;13.41;74.81
31082;BME280;17737;52.586;13.284;2023-04-24T06:26:43;99769.75;;;13.45;73.76
31082;BME280;17737;52.586;13.284;2023-04-24T06:29:11;99767.25;;;13.50;73.45
31082;BME280;17737;52.586;13.284;2023-04-24T06:31:39;99777.47;;;13.35;72.95
31082;BME280;17737;52.586;13.284;2023-04-24T06:34:09;99771.00;;;13.55;72.32
31082;BME280;17737;52.586;13.284;2023-04-24T06:36:37;99778.19;;;13.81;72.28
31082;BME280;17737;52.586;13.284;2023-04-24T06:39:05;99781.28;;;14.04;71.53
31082;BME280;17737;52.586;13.284;2023-04-24T06:41:33;99777.31;;;14.00;70.78
31082;BME280;17737;52.586;13.284;2023-04-24T06:44:02;99771.72;;;13.95;71.10
31082;BME280;17737;52.586;13.284;2023-04-24T06:46:30;99771.00;;;14.19;70.26
31082;BME280;17737;52.586;13.284;2023-04-24T06:48:58;99777.06;;;14.14;69.84
31082;BME280;17737;52.586;13.284;2023-04-24T06:51:27;99782.03;;;14.24;69.07
31082;BME280;17737;52.586;13.284;2023-04-24T06:53:55;99786.22;;;14.26;69.24
31082;BME280;17737;52.586;13.284;2023-04-24T06:56:24;99772.88;;;14.25;68.50
31082;BME280;17737;52.586;13.284;2023-04-24T06:58:52;99772.69;;;14.26;67.50
31082;BME280;17737;52.586;13.284;2023-04-24T07:01:20;99763.66;;;14.32;67.03
31082;BME280;17737;52.586;13.284;2023-04-24T07:03:49;99772.47;;;14.21;67.14
31082;BME280;17737;52.586;13.284;2023-04-24T07:06:17;99775.75;;;14.23;66.54
31082;BME280;17737;52.586;13.284;2023-04-24T07:08:49;99763.63;;;14.39;66.53
31082;BME280;17737;52.586;13.284;2023-04-24T07:11:17;99771.75;;;14.39;65.90
31082;BME280;17737;52.586;13.284;2023-04-24T07:13:45;99768.78;;;14.54;65.58
31082;BME280;17737;52.586;13.284;2023-04-24T07:16:13;99768.22;;;14.45;64.80
31082;BME280;17737;52.586;13.284;2023-04-24T07:18:41;99763.41;;;14.40;64.21
31082;BME280;17737;52.586;13.284;2023-04-24T07:21:09;99770.38;;;14.17;64.13
31082;BME280;17737;52.586;13.284;2023-04-24T07:23:38;99771.19;;;14.24;64.05
31082;BME280;17737;52.586;13.284;2023-04-24T07:26:08;99765.31;;;14.40;63.69
31082;BME280;17737;52.586;13.284;2023-04-24T07:28:37;99766.06;;;14.54;63.13
31082;BME280;17737;52.586;13.284;2023-04-24T07:31:05;99772.69;;;14.64;62.17
31082;BME280;17737;52.586;13.284;2023-04-24T07:33:33;99768.53;;;14.62;61.51
31082;BME280;17737;52.586;13.284;2023-04-24T07:36:03;99768.56;;;14.86;61.27
31082;BME280;17737;52.586;13.284;2023-04-24T07:38:31;99773.84;;;15.06;60.96
31082;BME280;17737;52.586;13.284;2023-04-24T07:40:59;99776.16;;;15.02;61.12
31082;BME280;17737;52.586;13.284;2023-04-24T07:43:29;99776.16;;;15.02;61.59
31082;BME280;17737;52.586;13.284;2023-04-24T07:45:57;99767.19;;;15.26;59.60
31082;BME280;17737;52.586;13.284;2023-04-24T07:48:25;99760.59;;;15.16;59.32
31082;BME280;17737;52.586;13.284;2023-04-24T07:50:53;99761.91;;;15.13;58.16
31082;BME280;17737;52.586;13.284;2023-04-24T07:53:21;99768.28;;;15.25;58.97
31082;BME280;17737;52.586;13.284;2023-04-24T07:55:49;99774.78;;;15.18;59.04
31082;BME280;17737;52.586;13.284;2023-04-24T07:58:17;99768.78;;;15.40;58.18
31082;BME280;17737;52.586;13.284;2023-04-24T08:00:47;99778.16;;;15.38;58.23
31082;BME280;17737;52.586;13.284;2023-04-24T08:03:15;99774.25;;;15.58;57.22
31082;BME280;17737;52.586;13.284;2023-04-24T08:05:46;99766.72;;;15.79;55.60
31082;BME280;17737;52.586;13.284;2023-04-24T08:08:14;99769.72;;;15.71;55.57
31082;BME280;17737;52.586;13.284;2023-04-24T08:10:42;99776.69;;;16.03;55.34
31082;BME280;17737;52.586;13.284;2023-04-24T08:13:11;99784.25;;;16.19;54.69
31082;BME280;17737;52.586;13.284;2023-04-24T08:15:39;99781.19;;;16.27;54.60
31082;BME280;17737;52.586;13.284;2023-04-24T08:18:08;99765.91;;;15.96;55.67
31082;BME280;17737;52.586;13.284;2023-04-24T08:20:38;99775.25;;;16.00;56.41
31082;BME280;17737;52.586;13.284;2023-04-24T08:23:06;99775.72;;;16.63;55.47
31082;BME280;17737;52.586;13.284;2023-04-24T08:25:34;99783.91;;;16.63;54.34
31082;BME280;17737;52.586;13.284;2023-04-24T08:28:03;99772.13;;;16.51;54.52
31082;BME280;17737;52.586;13.284;2023-04-24T08:30:33;99771.44;;;16.55;54.39
31082;BME280;17737;52.586;13.284;2023-04-24T08:33:01;99773.50;;;16.24;54.79
31082;BME280;17737;52.586;13.284;2023-04-24T08:35:30;99762.56;;;15.76;55.82
31082;BME280;17737;52.586;13.284;2023-04-24T08:37:59;99762.94;;;15.98;55.51
31082;BME280;17737;52.586;13.284;2023-04-24T08:40:28;99768.97;;;16.18;55.24
31082;BME280;17737;52.586;13.284;2023-04-24T08:42:57;99773.63;;;16.65;54.23
31082;BME280;17737;52.586;13.284;2023-04-24T08:45:26;99772.69;;;16.71;53.76
31082;BME280;17737;52.586;13.284;2023-04-24T08:47:55;99767.06;;;16.54;53.27
31082;BME280;17737;52.586;13.284;2023-04-24T08:50:25;99775.59;;;16.58;53.25
31082;BME280;17737;52.586;13.284;2023-04-24T08:52:55;99770.16;;;16.58;52.12
31082;BME280;17737;52.586;13.284;2023-04-24T08:55:24;99775.16;;;16.25;52.25
31082;BME280;17737;52.586;13.284;2023-04-24T08:57:52;99767.31;;;16.53;52.53
31082;BME280;17737;52.586;13.284;2023-04-24T09:00:21;99778.91;;;16.60;52.28
31082;BME280;17737;52.586;13.284;2023-04-24T09:02:50;99777.00;;;16.90;52.10
31082;BME280;17737;52.586;13.284;2023-04-24T09:05:20;99779.13;;;16.88;52.25
31082;BME280;17737;52.586;13.284;2023-04-24T09:07:56;99779.59;;;16.85;52.27
31082;BME280;17737;52.586;13.284;2023-04-24T09:10:25;99784.56;;;16.88;52.51
31082;BME280;17737;52.586;13.284;2023-04-24T09:12:58;99785.41;;;16.41;53.46
31082;BME280;17737;52.586;13.284;2023-04-24T09:15:29;99789.28;;;16.51;53.62
31082;BME280;17737;52.586;13.284;2023-04-24T09:17:58;99782.22;;;16.62;53.59
31082;BME280;17737;52.586;13.284;2023-04-24T09:20:26;99777.41;;;16.75;53.48
31082;BME280;17737;52.586;13.284;2023-04-24T09:22:56;99782.97;;;16.69;53.43
31082;BME280;17737;52.586;13.284;2023-04-24T09:25:30;99780.06;;;16.82;52.95
31082;BME280;17737;52.586;13.284;2023-04-24T09:28:01;99775.59;;;16.99;52.92
31082;BME280;17737;52.586;13.284;2023-04-24T09:30:31;99776.28;;;16.83;53.41
31082;BME280;17737;52.586;13.284;2023-04-24T09:33:10;99778.19;;;16.94;52.99
31082;BME280;17737;52.586;13.284;2023-04-24T09:35:40;99778.75;;;17.26;51.99
31082;BME280;17737;52.586;13.284;2023-04-24T09:38:11;99773.66;;;17.29;52.01
31082;BME280;17737;52.586;13.284;2023-04-24T09:40:39;99776.16;;;16.90;53.32
31082;BME280;17737;52.586;13.284;2023-04-24T09:43:10;99781.34;;;16.80;54.20
31082;BME280;17737;52.586;13.284;2023-04-24T09:45:39;99787.53;;;16.39;55.28
31082;BME280;17737;52.586;13.284;2023-04-24T09:48:09;99784.84;;;16.03;56.04
31082;BME280;17737;52.586;13.284;2023-04-24T09:50:37;99781.19;;;16.27;55.94
31082;BME280;17737;52.586;13.284;2023-04-24T09:53:06;99777.94;;;16.54;55.51
31082;BME280;17737;52.586;13.284;2023-04-24T09:55:44;99776.25;;;16.71;55.02
31082;BME280;17737;52.586;13.284;2023-04-24T09:58:14;99780.25;;;16.69;54.59
31082;BME280;17737;52.586;13.284;2023-04-24T10:00:42;99783.09;;;16.74;55.26
31082;BME280;17737;52.586;13.284;2023-04-24T10:03:13;99774.84;;;16.33;55.17
31082;BME280;17737;52.586;13.284;2023-04-24T10:05:41;99773.94;;;16.21;55.55
31082;BME280;17737;52.586;13.284;2023-04-24T10:08:11;99771.53;;;16.49;56.10
31082;BME280;17737;52.586;13.284;2023-04-24T10:10:42;99779.84;;;16.95;54.21
31082;BME280;17737;52.586;13.284;2023-04-24T10:13:13;99775.22;;;16.54;54.15
31082;BME280;17737;52.586;13.284;2023-04-24T10:15:41;99778.56;;;16.98;53.59
31082;BME280;17737;52.586;13.284;2023-04-24T10:18:10;99766.75;;;17.15;52.60
31082;BME280;17737;52.586;13.284;2023-04-24T10:20:40;99776.91;;;16.67;53.03
31082;BME280;17737;52.586;13.284;2023-04-24T10:23:09;99775.13;;;16.61;53.77
31082;BME280;17737;52.586;13.284;2023-04-24T10:25:40;99770.50;;;17.03;53.62
31082;BME280;17737;52.586;13.284;2023-04-24T10:28:09;99774.69;;;17.05;53.38
31082;BME280;17737;52.586;13.284;2023-04-24T10:30:38;99768.56;;;17.21;53.48
31082;BME280;17737;52.586;13.284;2023-04-24T10:33:11;99772.75;;;16.94;53.98
31082;BME280;17737;52.586;13.284;2023-04-24T10:35:42;99772.88;;;16.58;53.80
31082;BME280;17737;52.586;13.284;2023-04-24T10:38:18;99769.31;;;16.57;53.69
31082;BME280;17737;52.586;13.284;2023-04-24T10:40:57;99769.19;;;16.16;54.72
31082;BME280;17737;52.586;13.284;2023-04-24T10:43:35;99767.03;;;16.07;55.14
31082;BME280;17737;52.586;13.284;2023-04-24T10:46:04;99765.34;;;16.24;55.42
31082;BME280;17737;52.586;13.284;2023-04-24T10:48:33;99764.28;;;16.25;55.11
31082;BME280;17737;52.586;13.284;2023-04-24T10:51:02;99755.16;;;16.37;59.83
31082;BME280;17737;52.586;13.284;2023-04-24T10:53:30;99744.03;;;16.39;57.00
31082;BME280;17737;52.586;13.284;2023-04-24T10:56:03;99758.66;;;16.38;58.53
31082;BME280;17737;52.586;13.284;2023-04-24T10:58:37;99765.50;;;16.47;59.06
31082;BME280;17737;52.586;13.284;2023-04-24T11:01:07;99765.34;;;17.13;57.74
31082;BME280;17737;52.586;13.284;2023-04-24T11:03:35;99768.34;;;17.34;55.15
31082;BME280;17737;52.586;13.284;2023-04-24T11:06:05;99763.84;;;17.40;54.71
31082;BME280;17737;52.586;13.284;2023-04-24T11:08:38;99775.94;;;17.55;53.35
31082;BME280;17737;52.586;13.284;2023-04-24T11:11:13;99763.25;;;17.38;53.09
31082;BME280;17737;52.586;13.284;2023-04-24T11:14:01;99766.47;;;17.46;54.51
31082;BME280;17737;52.586;13.284;2023-04-24T11:16:36;99759.13;;;17.58;54.34
31082;BME280;17737;52.586;13.284;2023-04-24T11:19:20;99758.72;;;17.09;55.57
31082;BME280;17737;52.586;13.284;2023-04-24T11:22:03;99768.94;;;16.84;55.33
31082;BME280;17737;52.586;13.284;2023-04-24T11:24:50;99762.31;;;16.91;55.05
31082;BME280;17737;52.586;13.284;2023-04-24T11:27:22;99761.78;;;17.01;54.52
31082;BME280;17737;52.586;13.284;2023-04-24T11:29:59;99757.84;;;16.55;54.84
31082;BME280;17737;52.586;13.284;2023-04-24T11:32:33;99770.72;;;16.60;55.31
31082;BME280;17737;52.586;13.284;2023-04-24T11:35:05;99766.66;;;16.81;55.00
31082;BME280;17737;52.586;13.284;2023-04-24T11:37:36;99749.81;;;17.13;53.52
31082;BME280;17737;52.586;13.284;2023-04-24T11:40:06;99752.47;;;17.31;53.30
31082;BME280;17737;52.586;13.284;2023-04-24T11:42:51;99760.53;;;17.84;52.36
31082;BME280;17737;52.586;13.284;2023-04-24T11:45:24;99757.75;;;18.07;51.94
31082;BME280;17737;52.586;13.284;2023-04-24T11:47:58;99762.22;;;17.62;51.01
31082;BME280;17737;52.586;13.284;2023-04-24T11:50:48;99753.56;;;17.53;52.25
31082;BME280;17737;52.586;13.284;2023-04-24T11:53:18;99747.72;;;17.84;51.20
31082;BME280;17737;52.586;13.284;2023-04-24T11:55:47;99747.91;;;18.18;50.61
31082;BME280;17737;52.586;13.284;2023-04-24T11:58:20;99754.75;;;18.32;50.28
31082;BME280;17737;52.586;13.284;2023-04-24T12:00:56;99761.84;;;17.47;51.27
31082;BME280;17737;52.586;13.284;2023-04-24T12:03:25;99745.59;;;17.17;52.08
31082;BME280;17737;52.586;13.284;2023-04-24T12:06:04;99738.75;;;17.84;51.84
31082;BME280;17737;52.586;13.284;2023-04-24T12:08:34;99739.94;;;18.56;50.63
31082;BME280;17737;52.586;13.284;2023-04-24T12:11:05;99734.56;;;18.89;50.17
31082;BME280;17737;52.586;13.284;2023-04-24T12:13:36;99733.19;;;18.58;51.49
31082;BME280;17737;52.586;13.284;2023-04-24T12:16:04;99737.13;;;18.51;51.74
31082;BME280;17737;52.586;13.284;2023-04-24T12:18:32;99729.72;;;18.63;51.36
31082;BME280;17737;52.586;13.284;2023-04-24T12:21:14;99727.38;;;18.83;51.47
31082;BME280;17737;52.586;13.284;2023-04-24T12:23:46;99718.81;;;18.63;50.93
31082;BME280;17737;52.586;13.284;2023-04-24T12:26:18;99729.84;;;18.40;51.68
31082;BME280;17737;52.586;13.284;2023-04-24T12:28:50;99728.03;;;18.45;51.38
31082;BME280;17737;52.586;13.284;2023-04-24T12:31:20;99726.50;;;17.98;51.13
31082;BME280;17737;52.586;13.284;2023-04-24T12:33:49;99710.53;;;18.30;51.63
31082;BME280;17737;52.586;13.284;2023-04-24T12:36:17;99728.53;;;17.79;51.92
31082;BME280;17737;52.586;13.284;2023-04-24T12:38:45;99747.25;;;17.30;50.47
31082;BME280;17737;52.586;13.284;2023-04-24T12:41:13;99753.16;;;16.74;50.27
31082;BME280;17737;52.586;13.284;2023-04-24T12:43:53;99760.81;;;16.36;48.52
31082;BME280;17737;52.586;13.284;2023-04-24T12:46:22;99756.66;;;16.33;48.79
31082;BME280;17737;52.586;13.284;2023-04-24T12:48:50;99755.66;;;16.75;48.73
31082;BME280;17737;52.586;13.284;2023-04-24T12:51:18;99745.72;;;16.69;48.75
31082;BME280;17737;52.586;13.284;2023-04-24T12:53:46;99747.91;;;16.49;49.27
31082;BME280;17737;52.586;13.284;2023-04-24T12:56:13;99747.25;;;16.77;49.95
31082;BME280;17737;52.586;13.284;2023-04-24T12:58:41;99744.97;;;17.04;48.40
31082;BME280;17737;52.586;13.284;2023-04-24T13:01:11;99746.78;;;17.44;48.11